createdAt,value
2023-12-29T00:02:06.247Z,53721.78
2023-12-29T00:04:36.257Z,53733.69
2023-12-29T00:07:05.261Z,53729.72
2023-12-29T00:09:39.730Z,53721.78
2023-12-29T00:12:09.289Z,53725.75
2023-12-29T00:14:39.876Z,53727.75
2023-12-29T00:17:08.528Z,53741.66
2023-12-29T00:19:38.651Z,53739.66
2023-12-29T00:22:07.401Z,53711.84
2023-12-29T00:24:37.324Z,53717.78
2023-12-29T00:27:06.623Z,53721.78
2023-12-29T00:29:36.627Z,53741.66
2023-12-29T00:32:06.264Z,53719.78
2023-12-29T00:34:35.720Z,53747.63
2023-12-29T00:37:07.049Z,53701.88
2023-12-29T00:39:40.389Z,53731.72
2023-12-29T00:42:09.421Z,53743.66
2023-12-29T00:44:37.781Z,53743.66
2023-12-29T00:47:06.259Z,53721.78
2023-12-29T00:49:34.764Z,53715.81
2023-12-29T00:52:04.150Z,53713.81
2023-12-29T00:54:37.393Z,53749.59
2023-12-29T00:57:06.640Z,53729.72
2023-12-29T00:59:35.076Z,53697.91
2023-12-29T01:02:03.623Z,53751.59
2023-12-29T01:04:32.217Z,53737.69
2023-12-29T01:07:00.774Z,53713.81
2023-12-29T01:09:29.243Z,53759.56
2023-12-29T01:11:59.043Z,53711.84
2023-12-29T01:14:27.401Z,53729.72
2023-12-29T01:16:57.349Z,53775.47
2023-12-29T01:19:26.474Z,53737.69
2023-12-29T01:21:54.916Z,53749.59
2023-12-29T01:24:32.747Z,53753.59
2023-12-29T01:27:06.543Z,53721.78
2023-12-29T01:29:35.509Z,53741.66
2023-12-29T01:32:09.336Z,53749.59
2023-12-29T01:34:37.869Z,53829.13
2023-12-29T01:37:06.926Z,53868.91
2023-12-29T01:39:36.415Z,53954.41
2023-12-29T01:42:06.845Z,54091.59
2023-12-29T01:44:35.261Z,54169.16
2023-12-29T01:47:06.525Z,54316.28
2023-12-29T01:49:36.628Z,54471.41
2023-12-29T01:52:06.114Z,54767.72
2023-12-29T01:54:39.488Z,54930.81
2023-12-29T01:57:10.875Z,55145.63
2023-12-29T01:59:40.563Z,55149.59
2023-12-29T02:02:09.392Z,55372.38
2023-12-29T02:04:41.062Z,55440.00
2023-12-29T02:07:09.761Z,55829.91
2023-12-29T02:09:38.870Z,56317.34
2023-12-29T02:12:08.163Z,56749.16
2023-12-29T02:14:38.375Z,57270.56
2023-12-29T02:17:13.199Z,57943.34
2023-12-29T02:19:45.955Z,58705.84
2023-12-29T02:22:15.824Z,59066.25
2023-12-29T02:24:48.992Z,59048.34
2023-12-29T02:27:36.596Z,58598.34
2023-12-29T02:30:11.868Z,58791.47
2023-12-29T02:32:43.838Z,58361.41
2023-12-29T02:35:25.660Z,57790.06
2023-12-29T02:37:56.202Z,57585.03
2023-12-29T02:40:26.924Z,57372.06
2023-12-29T02:42:55.540Z,57103.38
2023-12-29T02:45:24.814Z,57047.66
2023-12-29T02:47:53.460Z,57075.53
2023-12-29T02:50:22.170Z,56936.22
2023-12-29T02:52:50.642Z,56607.88
2023-12-29T02:55:19.283Z,56307.41
2023-12-29T02:57:50.441Z,56160.19
2023-12-29T03:00:19.629Z,55981.13
2023-12-29T03:02:48.018Z,55804.06
2023-12-29T03:05:17.076Z,55585.22
2023-12-29T03:07:45.669Z,55664.78
2023-12-29T03:10:14.114Z,55535.50
2023-12-29T03:12:42.559Z,55469.84
2023-12-29T03:15:12.659Z,55328.63
2023-12-29T03:17:41.144Z,55376.34
2023-12-29T03:20:10.815Z,55340.56
2023-12-29T03:22:39.194Z,55223.19
2023-12-29T03:25:08.274Z,55143.63
2023-12-29T03:27:36.751Z,55115.78
2023-12-29T03:30:05.896Z,55251.03
2023-12-29T03:32:35.662Z,55131.69
2023-12-29T03:35:04.091Z,55036.22
2023-12-29T03:37:32.517Z,54912.91
2023-12-29T03:40:00.971Z,54908.94
2023-12-29T03:42:29.293Z,54930.81
2023-12-29T03:44:59.272Z,54829.38
2023-12-29T03:47:27.804Z,54865.19
2023-12-29T03:49:57.741Z,54889.03
2023-12-29T03:52:26.137Z,54871.16
2023-12-29T03:54:54.588Z,54940.75
2023-12-29T03:57:23.191Z,54990.47
2023-12-29T03:59:51.973Z,55002.41
2023-12-29T04:02:20.560Z,55048.16
2023-12-29T04:04:49.396Z,55085.94
2023-12-29T04:07:19.337Z,55064.06
2023-12-29T04:09:47.928Z,55070.03
2023-12-29T04:12:16.370Z,55068.03
2023-12-29T04:14:45.001Z,55113.78
2023-12-29T04:17:15.382Z,55239.09
2023-12-29T04:19:44.125Z,55209.25
2023-12-29T04:22:12.734Z,55274.91
2023-12-29T04:24:42.737Z,55201.31
2023-12-29T04:27:11.230Z,55235.13
2023-12-29T04:29:40.619Z,55386.28
2023-12-29T04:32:09.174Z,55422.09
2023-12-29T04:34:38.627Z,55426.09
2023-12-29T04:37:06.966Z,55408.19
2023-12-29T04:39:36.318Z,55241.09
2023-12-29T04:42:06.637Z,55227.16
2023-12-29T04:44:35.103Z,55113.78
2023-12-29T04:47:03.713Z,54950.69
2023-12-29T04:49:32.137Z,54974.56
2023-12-29T04:52:00.750Z,54775.69
2023-12-29T04:54:29.231Z,54716.00
2023-12-29T04:56:57.737Z,54767.72
2023-12-29T04:59:27.485Z,54668.28
2023-12-29T05:01:56.004Z,54618.56
2023-12-29T05:04:24.508Z,54568.84
2023-12-29T05:06:52.952Z,54521.13
2023-12-29T05:09:21.673Z,54475.38
2023-12-29T05:11:50.222Z,54405.78
2023-12-29T05:14:18.663Z,54443.56
2023-12-29T05:16:48.412Z,54427.66
2023-12-29T05:19:16.878Z,54375.94
2023-12-29T05:21:45.610Z,54368.00
2023-12-29T05:24:14.069Z,54360.03
2023-12-29T05:26:42.375Z,54362.03
2023-12-29T05:29:10.756Z,54346.13
2023-12-29T05:31:39.219Z,54278.50
2023-12-29T05:34:09.943Z,54260.63
2023-12-29T05:36:38.532Z,54246.69
2023-12-29T05:39:08.209Z,54286.47
2023-12-29T05:41:36.732Z,54278.50
2023-12-29T05:44:05.630Z,54302.38
2023-12-29T05:46:34.173Z,54302.38
2023-12-29T05:49:02.869Z,54324.25
2023-12-29T05:51:32.874Z,54268.56
2023-12-29T05:54:01.314Z,54342.16
2023-12-29T05:56:29.909Z,54362.03
2023-12-29T05:58:58.344Z,54344.13
2023-12-29T06:01:26.910Z,54360.03
2023-12-29T06:03:55.566Z,54431.63
2023-12-29T06:06:24.126Z,54429.66
2023-12-29T06:08:54.196Z,54453.50
2023-12-29T06:11:22.840Z,54461.47
2023-12-29T06:13:51.320Z,54439.59
2023-12-29T06:16:20.921Z,54455.50
2023-12-29T06:18:49.916Z,54505.22
2023-12-29T06:21:19.011Z,54477.38
2023-12-29T06:23:47.838Z,54489.31
2023-12-29T06:26:19.123Z,54485.31
2023-12-29T06:28:48.056Z,54509.19
2023-12-29T06:31:16.821Z,54533.06
2023-12-29T06:33:45.892Z,54548.97
2023-12-29T06:36:15.221Z,54580.78
2023-12-29T06:38:47.151Z,54598.69
2023-12-29T06:41:17.085Z,54600.66
2023-12-29T06:43:45.681Z,54608.63
2023-12-29T06:48:43.880Z,54942.75
2023-12-29T06:51:18.578Z,55251.03
2023-12-29T06:53:48.272Z,55551.41
2023-12-29T06:56:19.430Z,56048.75
2023-12-29T06:58:48.620Z,56548.16
2023-12-29T07:01:17.470Z,56976.00
2023-12-29T07:03:46.443Z,57389.97
2023-12-29T07:06:15.097Z,57881.63
2023-12-29T07:08:43.678Z,58166.31
2023-12-29T07:11:13.181Z,58570.47
2023-12-29T07:13:43.060Z,58934.84
2023-12-29T07:16:12.206Z,58982.63
2023-12-29T07:18:40.835Z,59137.97
2023-12-29T07:21:09.407Z,59448.63
2023-12-29T07:23:37.877Z,59564.13
2023-12-29T07:26:07.127Z,60064.06
2023-12-29T07:28:35.729Z,60582.00
2023-12-29T07:31:06.058Z,60797.16
2023-12-29T07:33:35.063Z,61147.84
2023-12-29T07:36:03.628Z,60831.03
2023-12-29T07:38:32.028Z,60974.50
2023-12-29T07:41:00.849Z,60745.38
2023-12-29T07:43:29.310Z,60866.91
2023-12-29T07:45:57.813Z,61062.16
2023-12-29T07:48:27.791Z,60880.84
2023-12-29T07:50:56.464Z,61111.97
2023-12-29T07:53:24.973Z,61137.88
2023-12-29T07:55:54.726Z,61235.50
2023-12-29T07:58:23.187Z,61807.44
2023-12-29T08:00:51.891Z,61940.97
2023-12-29T08:03:20.430Z,62477.13
2023-12-29T08:05:50.180Z,63039.28
2023-12-29T08:08:18.740Z,64718.38
2023-12-29T08:10:47.637Z,66350.38
2023-12-29T08:13:16.168Z,67839.41
2023-12-29T08:15:45.011Z,69734.56
2023-12-29T08:18:13.854Z,69976.28
2023-12-29T08:20:42.516Z,70971.28
2023-12-29T08:23:12.561Z,72182.47
2023-12-29T08:25:41.048Z,71954.59
2023-12-29T08:28:09.761Z,71954.59
2023-12-29T08:30:38.875Z,72466.34
2023-12-29T08:33:07.440Z,72722.25
2023-12-29T08:35:35.869Z,72978.16
2023-12-29T08:38:04.307Z,73490.06
2023-12-29T08:40:34.471Z,73746.06
2023-12-29T08:43:03.186Z,73746.06
2023-12-29T08:45:31.794Z,73490.06
2023-12-29T08:48:00.699Z,74002.03
2023-12-29T08:50:29.431Z,74514.09
2023-12-29T08:52:58.090Z,74514.09
2023-12-29T08:55:28.007Z,75026.22
2023-12-29T08:57:58.346Z,75026.22
2023-12-29T09:00:27.058Z,75282.31
2023-12-29T09:02:55.650Z,74770.16
2023-12-29T09:05:24.139Z,74002.03
2023-12-29T09:07:52.578Z,74002.03
2023-12-29T09:10:23.786Z,73234.09
2023-12-29T09:12:52.456Z,72978.16
2023-12-29T09:15:23.237Z,73234.09
2023-12-29T09:17:51.923Z,73234.09
2023-12-29T09:20:21.516Z,74514.09
2023-12-29T09:22:50.297Z,75538.44
2023-12-29T09:25:23.034Z,75538.44
2023-12-29T09:27:53.809Z,77588.03
2023-12-29T09:30:24.041Z,79126.03
2023-12-29T09:32:53.037Z,81177.78
2023-12-29T09:35:22.194Z,82974.03
2023-12-29T09:37:51.230Z,83744.16
2023-12-29T09:40:19.987Z,81690.91
2023-12-29T09:42:49.924Z,84000.91
2023-12-29T09:45:25.617Z,86055.56
2023-12-29T09:47:55.760Z,87854.38
2023-12-29T09:50:24.904Z,88882.69
2023-12-29T09:52:55.329Z,89396.97
2023-12-29T09:55:25.404Z,89911.31
2023-12-29T09:57:57.625Z,90425.72
2023-12-29T10:00:28.002Z,90425.72
2023-12-29T10:02:56.880Z,90940.22
2023-12-29T10:05:26.609Z,91197.50
2023-12-29T10:07:55.923Z,91454.81
2023-12-29T10:10:26.029Z,92741.59
2023-12-29T10:12:55.809Z,91712.13
2023-12-29T10:15:35.762Z,91454.81
2023-12-29T10:18:12.976Z,91197.50
2023-12-29T10:20:50.582Z,90425.72
2023-12-29T10:23:21.605Z,89654.13
2023-12-29T10:25:50.795Z,88368.50
2023-12-29T10:28:19.922Z,87083.34
2023-12-29T10:30:50.088Z,85541.78
2023-12-29T10:33:22.747Z,83487.44
2023-12-29T10:36:03.745Z,82717.38
2023-12-29T10:38:32.853Z,81690.91
2023-12-29T10:41:14.353Z,80151.75
2023-12-29T10:43:43.957Z,79126.03
2023-12-29T10:46:14.174Z,79126.03
2023-12-29T10:48:42.881Z,78100.63
2023-12-29T10:51:11.443Z,77588.03
2023-12-29T10:53:41.923Z,77075.53
2023-12-29T10:56:22.203Z,76563.09
2023-12-29T10:59:00.849Z,76819.28
2023-12-29T11:01:31.333Z,76306.91
2023-12-29T11:04:04.443Z,75794.56
2023-12-29T11:06:43.130Z,74258.06
2023-12-29T11:09:12.671Z,75538.44
2023-12-29T11:11:41.592Z,74514.09
2023-12-29T11:14:12.679Z,73746.06
2023-12-29T11:16:45.421Z,72722.25
2023-12-29T11:19:15.375Z,71187.13
2023-12-29T11:21:45.193Z,71442.94
2023-12-29T11:24:17.492Z,70343.88
2023-12-29T11:26:51.246Z,69836.44
2023-12-29T11:29:19.848Z,71954.59
2023-12-29T11:31:52.724Z,71698.75
2023-12-29T11:34:26.590Z,71954.59
2023-12-29T11:37:02.265Z,71954.59
2023-12-29T11:39:39.982Z,72210.47
2023-12-29T11:42:16.618Z,72466.34
2023-12-29T11:44:47.018Z,72466.34
2023-12-29T11:47:40.907Z,72466.34
2023-12-29T11:50:11.602Z,73746.06
2023-12-29T11:52:41.990Z,73490.06
2023-12-29T11:55:11.886Z,74258.06
2023-12-29T11:57:41.557Z,74258.06
2023-12-29T12:00:11.372Z,74002.03
2023-12-29T12:02:44.197Z,74258.06
2023-12-29T12:05:14.456Z,74258.06
2023-12-29T12:08:04.715Z,72978.16
2023-12-29T12:10:34.764Z,74258.06
2023-12-29T12:13:04.109Z,76306.91
2023-12-29T12:15:36.742Z,79895.28
2023-12-29T12:18:10.944Z,84000.91
2023-12-29T12:20:40.837Z,85798.66
2023-12-29T12:23:14.072Z,86312.47
2023-12-29T12:25:42.760Z,86826.34
2023-12-29T12:28:12.288Z,88111.41
2023-12-29T12:30:40.989Z,88111.41
2023-12-29T12:33:13.049Z,88368.50
2023-12-29T12:35:42.490Z,88368.50
2023-12-29T12:38:12.305Z,88368.50
2023-12-29T12:40:41.029Z,88882.69
2023-12-29T12:43:10.720Z,88882.69
2023-12-29T12:45:45.067Z,89654.13
2023-12-29T12:48:23.831Z,89911.31
2023-12-29T12:50:53.092Z,90682.97
2023-12-29T12:53:22.380Z,91454.81
2023-12-29T12:55:52.339Z,90682.97
2023-12-29T12:58:22.424Z,89911.31
2023-12-29T13:00:53.227Z,90168.50
2023-12-29T13:03:26.536Z,90168.50
2023-12-29T13:05:55.883Z,90168.50
2023-12-29T13:08:30.437Z,90168.50
2023-12-29T13:11:04.716Z,90425.72
2023-12-29T13:13:40.402Z,90425.72
2023-12-29T13:16:12.389Z,90682.97
2023-12-29T13:18:42.789Z,90682.97
2023-12-29T13:21:11.649Z,90425.72
2023-12-29T13:23:40.163Z,89911.31
2023-12-29T13:26:11.711Z,89654.13
2023-12-29T13:28:41.513Z,89654.13
2023-12-29T13:31:14.645Z,89396.97
2023-12-29T13:33:55.712Z,89139.81
2023-12-29T13:36:32.251Z,88111.41
2023-12-29T13:39:09.432Z,86569.41
2023-12-29T13:41:39.161Z,86055.56
2023-12-29T13:44:09.512Z,84514.44
2023-12-29T13:46:39.642Z,82974.03
2023-12-29T13:49:10.638Z,81177.78
2023-12-29T13:51:39.444Z,79895.28
2023-12-29T13:54:08.325Z,77588.03
2023-12-29T13:56:36.812Z,77588.03
2023-12-29T13:59:08.654Z,74514.09
2023-12-29T14:01:38.880Z,71698.75
2023-12-29T14:04:14.379Z,72722.25
2023-12-29T14:06:52.526Z,74002.03
2023-12-29T14:09:21.593Z,71698.75
2023-12-29T14:11:51.416Z,68596.16
2023-12-29T14:14:26.073Z,68051.03
2023-12-29T14:16:55.501Z,68793.84
2023-12-29T14:19:25.921Z,68071.00
2023-12-29T14:21:56.787Z,67080.84
2023-12-29T14:24:25.613Z,69073.44
2023-12-29T14:27:01.259Z,65516.31
2023-12-29T14:29:30.423Z,64467.03
2023-12-29T14:32:01.535Z,62742.25
2023-12-29T14:34:31.669Z,62178.16
2023-12-29T14:37:00.446Z,61787.50
2023-12-29T14:39:28.912Z,61440.75
2023-12-29T14:41:57.414Z,61115.97
2023-12-29T14:44:26.228Z,60611.88
2023-12-29T14:46:54.750Z,60998.41
2023-12-29T14:49:23.200Z,61887.16
2023-12-29T14:51:54.484Z,62710.34
2023-12-29T14:54:22.965Z,65727.81
2023-12-29T14:56:52.344Z,68184.81
2023-12-29T14:59:21.047Z,70419.81
2023-12-29T15:01:51.226Z,72722.25
2023-12-29T15:04:20.094Z,75538.44
2023-12-29T15:06:48.771Z,76819.28
2023-12-29T15:09:19.268Z,78613.28
2023-12-29T15:11:47.796Z,80664.72
2023-12-29T15:14:16.687Z,82460.72
2023-12-29T15:16:45.356Z,82717.38
2023-12-29T15:19:14.160Z,83487.44
2023-12-29T15:21:42.977Z,84514.44
2023-12-29T15:24:11.652Z,85541.78
2023-12-29T15:26:42.221Z,86055.56
2023-12-29T15:29:10.924Z,86826.34
2023-12-29T15:31:39.450Z,87854.38
2023-12-29T15:34:08.168Z,88368.50
2023-12-29T15:36:37.581Z,87854.38
2023-12-29T15:39:06.627Z,88625.56
2023-12-29T15:41:35.360Z,88625.56
2023-12-29T15:44:07.679Z,89139.81
2023-12-29T15:46:36.761Z,90168.50
2023-12-29T15:49:05.948Z,91197.50
2023-12-29T15:51:34.790Z,92226.81
2023-12-29T15:54:03.539Z,92741.59
2023-12-29T15:56:32.421Z,93513.91
2023-12-29T15:59:01.005Z,93771.38
2023-12-29T16:01:34.125Z,94286.38
2023-12-29T16:04:02.953Z,94543.91
2023-12-29T16:06:31.556Z,94543.91
2023-12-29T16:09:00.278Z,94801.44
2023-12-29T16:11:31.256Z,94801.44
2023-12-29T16:14:00.667Z,94801.44
2023-12-29T16:16:32.262Z,94801.44
2023-12-29T16:19:02.958Z,94801.44
2023-12-29T16:21:39.442Z,94801.44
2023-12-29T16:24:08.899Z,94543.91
2023-12-29T16:26:43.181Z,94286.38
2023-12-29T16:29:16.567Z,93771.38
2023-12-29T16:31:46.726Z,94028.84
2023-12-29T16:34:15.719Z,94543.91
2023-12-29T16:36:58.288Z,94028.84
2023-12-29T16:39:27.052Z,94028.84
2023-12-29T16:41:55.509Z,94028.84
2023-12-29T16:44:24.035Z,94543.91
2023-12-29T16:46:54.210Z,95059.00
2023-12-29T16:49:22.892Z,94801.44
2023-12-29T16:51:51.577Z,94801.44
2023-12-29T16:54:20.162Z,94801.44
2023-12-29T16:56:48.685Z,94801.44
2023-12-29T16:59:17.139Z,94543.91
2023-12-29T17:01:45.799Z,94801.44
2023-12-29T17:04:16.640Z,94543.91
2023-12-29T17:06:45.537Z,94543.91
2023-12-29T17:09:14.032Z,95059.00
2023-12-29T17:11:43.983Z,94543.91
2023-12-29T17:14:12.725Z,94286.38
2023-12-29T17:16:42.200Z,93771.38
2023-12-29T17:19:11.356Z,93256.44
2023-12-29T17:21:41.948Z,92999.00
2023-12-29T17:24:10.764Z,92741.59
2023-12-29T17:26:39.276Z,92741.59
2023-12-29T17:29:07.805Z,92484.19
2023-12-29T17:31:36.326Z,92226.81
2023-12-29T17:34:05.258Z,91712.13
2023-12-29T17:36:34.900Z,91454.81
2023-12-29T17:39:06.440Z,91197.50
2023-12-29T17:41:34.994Z,91454.81
2023-12-29T17:44:03.528Z,91197.50
2023-12-29T17:46:32.100Z,90940.22
2023-12-29T17:49:00.820Z,90168.50
2023-12-29T17:51:30.423Z,90168.50
2023-12-29T17:54:00.582Z,90168.50
2023-12-29T17:56:30.476Z,90425.72
2023-12-29T17:58:58.996Z,90425.72
2023-12-29T18:01:27.639Z,90168.50
2023-12-29T18:03:56.234Z,89911.31
2023-12-29T18:06:25.166Z,89911.31
2023-12-29T18:08:56.436Z,87597.34
2023-12-29T18:11:25.076Z,86826.34
2023-12-29T18:13:55.872Z,85541.78
2023-12-29T18:16:24.644Z,84514.44
2023-12-29T18:18:53.401Z,82974.03
2023-12-29T18:21:22.116Z,82204.09
2023-12-29T18:23:50.741Z,81434.31
2023-12-29T18:26:19.199Z,80151.75
2023-12-29T18:28:47.872Z,79126.03
2023-12-29T18:31:20.711Z,78100.63
2023-12-29T18:33:49.481Z,79895.28
2023-12-29T18:36:18.376Z,80408.22
2023-12-29T18:38:47.305Z,80408.22
2023-12-29T18:41:15.989Z,81434.31
2023-12-29T18:43:44.514Z,82204.09
2023-12-29T18:46:17.502Z,81177.78
2023-12-29T18:48:46.511Z,80408.22
2023-12-29T18:51:16.909Z,81177.78
2023-12-29T18:53:46.372Z,81177.78
2023-12-29T18:56:16.236Z,81177.78
2023-12-29T18:58:44.707Z,79126.03
2023-12-29T19:01:13.375Z,78356.94
2023-12-29T19:03:43.928Z,78100.63
2023-12-29T19:06:12.790Z,77331.78
2023-12-29T19:08:41.384Z,77075.53
2023-12-29T19:11:10.135Z,76563.09
2023-12-29T19:13:42.119Z,76819.28
2023-12-29T19:16:11.323Z,77844.31
2023-12-29T19:18:42.731Z,78356.94
2023-12-29T19:21:11.575Z,77588.03
2023-12-29T19:23:42.290Z,76050.72
2023-12-29T19:26:19.802Z,73234.09
2023-12-29T19:28:48.271Z,72210.47
2023-12-29T19:31:18.602Z,71442.94
2023-12-29T19:33:48.876Z,69373.03
2023-12-29T19:36:17.663Z,69600.75
2023-12-29T19:38:47.130Z,69365.03
2023-12-29T19:41:15.697Z,69508.84
2023-12-29T19:43:44.226Z,69652.69
2023-12-29T19:46:13.426Z,69241.22
2023-12-29T19:48:42.785Z,67697.66
2023-12-29T19:51:13.111Z,67034.94
2023-12-29T19:53:41.717Z,65829.56
2023-12-29T19:56:10.203Z,64642.56
2023-12-29T19:58:38.742Z,64738.31
2023-12-29T20:01:07.599Z,65496.38
2023-12-29T20:03:36.779Z,64371.31
2023-12-29T20:06:05.658Z,63978.44
2023-12-29T20:08:35.657Z,63625.47
2023-12-29T20:11:04.600Z,62820.00
2023-12-29T20:13:33.180Z,62833.94
2023-12-29T20:16:01.783Z,63017.38
2023-12-29T20:18:30.364Z,62066.53
2023-12-29T20:20:59.113Z,61175.75
2023-12-29T20:23:35.582Z,60151.72
2023-12-29T20:26:05.863Z,60938.63
2023-12-29T20:28:35.102Z,60466.47
2023-12-29T20:31:03.657Z,59773.25
2023-12-29T20:33:32.457Z,59006.53
2023-12-29T20:36:00.896Z,57907.50
2023-12-29T20:38:29.430Z,57865.72
2023-12-29T20:40:58.063Z,57736.31
2023-12-29T20:43:28.680Z,57386.00
2023-12-29T20:45:57.624Z,57425.81
2023-12-29T20:48:26.329Z,56989.94
2023-12-29T20:51:00.769Z,56741.19
2023-12-29T20:53:32.699Z,57155.13
2023-12-29T20:56:01.154Z,56820.78
2023-12-29T20:58:31.686Z,57380.03
2023-12-29T21:01:00.288Z,57192.94
2023-12-29T21:03:29.765Z,57411.88
2023-12-29T21:05:58.299Z,57290.47
2023-12-29T21:08:27.021Z,57350.19
2023-12-29T21:10:58.449Z,57049.66
2023-12-29T21:13:27.907Z,57119.31
2023-12-29T21:15:58.158Z,56930.25
2023-12-29T21:18:27.105Z,57047.66
2023-12-29T21:20:55.712Z,57091.44
2023-12-29T21:23:24.448Z,57037.72
2023-12-29T21:25:53.196Z,57025.78
2023-12-29T21:28:22.089Z,56978.00
2023-12-29T21:30:50.976Z,57200.91
2023-12-29T21:33:21.054Z,57280.50
2023-12-29T21:35:52.092Z,57230.75
2023-12-29T21:38:20.757Z,57196.94
2023-12-29T21:40:49.752Z,56995.91
2023-12-29T21:43:18.457Z,57043.69
2023-12-29T21:45:47.085Z,56928.25
2023-12-29T21:48:22.858Z,56691.44
2023-12-29T21:50:51.621Z,56751.16
2023-12-29T21:53:20.380Z,56878.50
2023-12-29T21:55:48.946Z,56908.34
2023-12-29T21:58:17.808Z,56976.00
2023-12-29T22:00:46.411Z,57258.63
2023-12-29T22:03:15.333Z,57477.56
2023-12-29T22:05:45.442Z,57782.09
2023-12-29T22:08:14.635Z,57971.22
2023-12-29T22:10:44.039Z,58112.56
2023-12-29T22:13:15.257Z,58293.72
2023-12-29T22:15:44.043Z,58397.25
2023-12-29T22:18:13.572Z,58851.22
2023-12-29T22:20:42.154Z,58681.97
2023-12-29T22:23:11.969Z,59088.16
2023-12-29T22:25:40.663Z,59341.09
2023-12-29T22:28:09.628Z,59464.56
2023-12-29T22:30:39.083Z,59432.69
2023-12-29T22:33:07.798Z,59476.50
2023-12-29T22:35:36.860Z,59480.50
2023-12-29T22:38:05.561Z,59631.84
2023-12-29T22:40:35.520Z,60109.88
2023-12-29T22:43:04.454Z,60340.97
2023-12-29T22:45:33.483Z,60372.81
2023-12-29T22:48:01.980Z,60496.34
2023-12-29T22:50:30.553Z,59844.97
2023-12-29T22:52:58.964Z,59729.44
2023-12-29T22:55:28.153Z,59727.44
2023-12-29T22:57:58.411Z,59349.03
2023-12-29T23:00:28.308Z,58920.91
2023-12-29T23:02:56.806Z,58865.16
2023-12-29T23:05:25.217Z,59062.28
2023-12-29T23:07:53.619Z,59024.44
2023-12-29T23:10:22.076Z,58739.72
2023-12-29T23:12:50.591Z,58729.75
2023-12-29T23:15:20.400Z,59014.50
2023-12-29T23:17:48.868Z,58932.84
2023-12-29T23:20:17.578Z,58253.91
2023-12-29T23:22:45.950Z,58357.44
2023-12-29T23:25:14.461Z,58337.53
2023-12-29T23:27:42.872Z,58249.91
2023-12-29T23:30:13.259Z,57877.66
2023-12-29T23:32:43.343Z,58011.03
2023-12-29T23:35:19.704Z,58013.03
2023-12-29T23:37:52.637Z,58080.69
2023-12-29T23:40:21.650Z,58066.75
2023-12-29T23:42:50.097Z,58251.91
2023-12-29T23:45:18.419Z,58345.47
2023-12-29T23:47:48.603Z,59006.53
2023-12-29T23:50:17.310Z,58962.72
2023-12-29T23:52:45.968Z,58695.91
2023-12-29T23:55:14.460Z,58660.06
2023-12-29T23:57:42.984Z,58580.41
